GJS6618 KDEN-KORD
Flight info
| Callsign | GJS6618 |
|---|---|
| Flight time | 1h 51m |
| Altitude | 39000 |
| Route | EMMYS8 ZIRKL PWE IRK BENKY6 |
| Aircraft | CRJ7/M-SDFGIRWY/S |
Departure
| Time | 2026-05-05 00:19 |
|---|---|
| Airport | Denver International Airport (KDEN) |
Arrival
| Time | 2026-05-05 02:10 |
|---|---|
| Airport | Chicago O'Hare International Airport (KORD) |
| Time | Latitude | Longitude | Altitude | Speed | Heading |
|---|---|---|---|---|---|
| 2026-05-04 23:48 | 39.85803 | -104.66870 | 5378 ft | 0 kts | 360° |
| 2026-05-05 00:07 | 39.85796 | -104.66870 | 5378 ft | 4 kts | 0° |
| 2026-05-05 00:07 | 39.85769 | -104.66871 | 5376 ft | 4 kts | 359° |
| 2026-05-05 00:07 | 39.85743 | -104.66866 | 5374 ft | 4 kts | 339° |
| 2026-05-05 00:08 | 39.85723 | -104.66846 | 5375 ft | 4 kts | 303° |
| 2026-05-05 00:08 | 39.85718 | -104.66835 | 5378 ft | 0 kts | 291° |
| 2026-05-05 00:10 | 39.85719 | -104.66838 | 5378 ft | 2 kts | 291° |
| 2026-05-05 00:11 | 39.85726 | -104.66880 | 5377 ft | 7 kts | 275° |
| 2026-05-05 00:11 | 39.85729 | -104.66947 | 5378 ft | 8 kts | 272° |
| 2026-05-05 00:11 | 39.85729 | -104.67028 | 5378 ft | 11 kts | 270° |
| 2026-05-05 00:11 | 39.85730 | -104.67125 | 5378 ft | 11 kts | 271° |
| 2026-05-05 00:12 | 39.85711 | -104.67217 | 5377 ft | 11 kts | 240° |
| 2026-05-05 00:12 | 39.85675 | -104.67312 | 5375 ft | 14 kts | 248° |
| 2026-05-05 00:12 | 39.85665 | -104.67441 | 5377 ft | 15 kts | 271° |
| 2026-05-05 00:12 | 39.85666 | -104.67590 | 5379 ft | 17 kts | 270° |
| 2026-05-05 00:13 | 39.85667 | -104.67745 | 5379 ft | 17 kts | 270° |
| 2026-05-05 00:13 | 39.85668 | -104.67896 | 5379 ft | 17 kts | 270° |
| 2026-05-05 00:13 | 39.85669 | -104.68042 | 5379 ft | 16 kts | 270° |
| 2026-05-05 00:13 | 39.85679 | -104.68183 | 5375 ft | 16 kts | 281° |
| 2026-05-05 00:14 | 39.85687 | -104.68324 | 5373 ft | 12 kts | 269° |
| 2026-05-05 00:14 | 39.85640 | -104.68397 | 5370 ft | 10 kts | 187° |
| 2026-05-05 00:14 | 39.85559 | -104.68400 | 5374 ft | 14 kts | 180° |
| 2026-05-05 00:14 | 39.85439 | -104.68401 | 5379 ft | 18 kts | 180° |
| 2026-05-05 00:15 | 39.85319 | -104.68401 | 5377 ft | 18 kts | 180° |
| 2026-05-05 00:15 | 39.85228 | -104.68413 | 5375 ft | 10 kts | 215° |
| 2026-05-05 00:15 | 39.85207 | -104.68510 | 5376 ft | 13 kts | 268° |
| 2026-05-05 00:15 | 39.85204 | -104.68653 | 5370 ft | 18 kts | 269° |
| 2026-05-05 00:16 | 39.85200 | -104.68832 | 5362 ft | 22 kts | 268° |
| 2026-05-05 00:16 | 39.85197 | -104.69047 | 5352 ft | 19 kts | 269° |
| 2026-05-05 00:16 | 39.85197 | -104.69210 | 5347 ft | 19 kts | 270° |
| 2026-05-05 00:16 | 39.85201 | -104.69377 | 5337 ft | 17 kts | 270° |
| 2026-05-05 00:17 | 39.85201 | -104.69500 | 5339 ft | 8 kts | 270° |
| 2026-05-05 00:17 | 39.85201 | -104.69522 | 5337 ft | 4 kts | 270° |
| 2026-05-05 00:17 | 39.85202 | -104.69604 | 5339 ft | 12 kts | 271° |
| 2026-05-05 00:17 | 39.85228 | -104.69655 | 5339 ft | 6 kts | 355° |
| 2026-05-05 00:18 | 39.85253 | -104.69656 | 5336 ft | 10 kts | 359° |
| 2026-05-05 00:18 | 39.85572 | -104.69657 | 5339 ft | 82 kts | 0° |
| 2026-05-05 00:18 | 39.86371 | -104.69650 | 5333 ft | 144 kts | 0° |
| 2026-05-05 00:18 | 39.87446 | -104.69598 | 5837 ft | 162 kts | 2° |
| 2026-05-05 00:19 | 39.88625 | -104.69507 | 6519 ft | 183 kts | 7° |
| 2026-05-05 00:19 | 39.89478 | -104.69285 | 6857 ft | 192 kts | 18° |
| 2026-05-05 00:19 | 39.90713 | -104.68683 | 7801 ft | 186 kts | 22° |
| 2026-05-05 00:19 | 39.91956 | -104.67991 | 8175 ft | 213 kts | 24° |
| 2026-05-05 00:20 | 39.93187 | -104.66689 | 8328 ft | 250 kts | 53° |
| 2026-05-05 00:20 | 39.94453 | -104.65037 | 9027 ft | 268 kts | 31° |
| 2026-05-05 00:20 | 39.96047 | -104.63607 | 9830 ft | 284 kts | 48° |
| 2026-05-05 00:20 | 39.97091 | -104.61428 | 10641 ft | 294 kts | 65° |
| 2026-05-05 00:21 | 39.97672 | -104.58832 | 11447 ft | 304 kts | 80° |
| 2026-05-05 00:21 | 39.97970 | -104.56089 | 12318 ft | 311 kts | 92° |
| 2026-05-05 00:21 | 39.97638 | -104.53295 | 13192 ft | 318 kts | 105° |
| 2026-05-05 00:21 | 39.97090 | -104.50399 | 13635 ft | 339 kts | 107° |
| 2026-05-05 00:22 | 39.96496 | -104.47337 | 14103 ft | 358 kts | 106° |
| 2026-05-05 00:22 | 39.95936 | -104.44101 | 14620 ft | 374 kts | 103° |
| 2026-05-05 00:22 | 39.95423 | -104.40749 | 15335 ft | 381 kts | 104° |
| 2026-05-05 00:22 | 39.94835 | -104.37344 | 16038 ft | 387 kts | 105° |
| 2026-05-05 00:23 | 39.94170 | -104.33918 | 16706 ft | 394 kts | 107° |
| 2026-05-05 00:23 | 39.93423 | -104.30459 | 17366 ft | 399 kts | 107° |
| 2026-05-05 00:23 | 39.92645 | -104.26960 | 18007 ft | 406 kts | 108° |
| 2026-05-05 00:23 | 39.91834 | -104.23406 | 18597 ft | 411 kts | 108° |
| 2026-05-05 00:24 | 39.91090 | -104.19809 | 19294 ft | 412 kts | 104° |
| 2026-05-05 00:24 | 39.90562 | -104.16130 | 19929 ft | 415 kts | 100° |
| 2026-05-05 00:24 | 39.90109 | -104.12396 | 20483 ft | 419 kts | 100° |
| 2026-05-05 00:24 | 39.89648 | -104.08634 | 21008 ft | 423 kts | 100° |
| 2026-05-05 00:25 | 39.89153 | -104.04841 | 21534 ft | 427 kts | 101° |
| 2026-05-05 00:25 | 39.88620 | -104.01029 | 22056 ft | 430 kts | 101° |
| 2026-05-05 00:25 | 39.88072 | -103.97180 | 22568 ft | 434 kts | 101° |
| 2026-05-05 00:25 | 39.87519 | -103.93310 | 23060 ft | 437 kts | 101° |
| 2026-05-05 00:26 | 39.87147 | -103.89367 | 23500 ft | 441 kts | 91° |
| 2026-05-05 00:26 | 39.87307 | -103.85367 | 23882 ft | 445 kts | 84° |
| 2026-05-05 00:26 | 39.87666 | -103.81352 | 24271 ft | 448 kts | 82° |
| 2026-05-05 00:26 | 39.88079 | -103.77314 | 24580 ft | 451 kts | 82° |
| 2026-05-05 00:27 | 39.88453 | -103.73243 | 24881 ft | 454 kts | 83° |
| 2026-05-05 00:27 | 39.88833 | -103.69151 | 25168 ft | 457 kts | 82° |
| 2026-05-05 00:27 | 39.89296 | -103.65040 | 25448 ft | 460 kts | 80° |
| 2026-05-05 00:27 | 39.89794 | -103.60914 | 25705 ft | 462 kts | 80° |
| 2026-05-05 00:28 | 39.90269 | -103.56768 | 25962 ft | 465 kts | 81° |
| 2026-05-05 00:28 | 39.90745 | -103.52596 | 26212 ft | 467 kts | 81° |
| 2026-05-05 00:28 | 39.91223 | -103.48403 | 26447 ft | 470 kts | 80° |
| 2026-05-05 00:28 | 39.91701 | -103.44177 | 26662 ft | 473 kts | 80° |
| 2026-05-05 00:29 | 39.92182 | -103.39922 | 26899 ft | 475 kts | 80° |
| 2026-05-05 00:29 | 39.92662 | -103.35665 | 27129 ft | 478 kts | 80° |
| 2026-05-05 00:29 | 39.93146 | -103.31364 | 27367 ft | 480 kts | 80° |
| 2026-05-05 00:29 | 39.93628 | -103.27065 | 27594 ft | 482 kts | 80° |
| 2026-05-05 00:30 | 39.94110 | -103.22727 | 27817 ft | 484 kts | 80° |
| 2026-05-05 00:30 | 39.94586 | -103.18441 | 28030 ft | 486 kts | 80° |
| 2026-05-05 00:30 | 39.95071 | -103.14073 | 28241 ft | 488 kts | 80° |
| 2026-05-05 00:30 | 39.95563 | -103.09622 | 28376 ft | 492 kts | 80° |
| 2026-05-05 00:31 | 39.96042 | -103.05252 | 28579 ft | 494 kts | 80° |
| 2026-05-05 00:31 | 39.96530 | -103.00817 | 28778 ft | 496 kts | 80° |
| 2026-05-05 00:31 | 39.97015 | -102.96364 | 28966 ft | 498 kts | 80° |
| 2026-05-05 00:31 | 39.97510 | -102.91819 | 29157 ft | 500 kts | 80° |
| 2026-05-05 00:32 | 39.97988 | -102.87386 | 29343 ft | 501 kts | 80° |
| 2026-05-05 00:32 | 39.98476 | -102.82885 | 29519 ft | 503 kts | 80° |
| 2026-05-05 00:32 | 39.98960 | -102.78367 | 29691 ft | 505 kts | 80° |
| 2026-05-05 00:32 | 39.99448 | -102.73820 | 29818 ft | 507 kts | 80° |
| 2026-05-05 00:33 | 39.99936 | -102.69260 | 29928 ft | 509 kts | 80° |
| 2026-05-05 00:33 | 40.00425 | -102.64672 | 30039 ft | 511 kts | 80° |
| 2026-05-05 00:33 | 40.00913 | -102.60074 | 30142 ft | 513 kts | 80° |
| 2026-05-05 00:33 | 40.01400 | -102.55445 | 30245 ft | 516 kts | 80° |
| 2026-05-05 00:34 | 40.01889 | -102.50807 | 30354 ft | 517 kts | 80° |
| 2026-05-05 00:34 | 40.02377 | -102.46145 | 30470 ft | 519 kts | 80° |
| 2026-05-05 00:34 | 40.02863 | -102.41473 | 30561 ft | 521 kts | 79° |
| 2026-05-05 00:34 | 40.03350 | -102.36784 | 30708 ft | 522 kts | 80° |
| 2026-05-05 00:35 | 40.03837 | -102.32071 | 30809 ft | 524 kts | 79° |
| 2026-05-05 00:35 | 40.04811 | -102.22621 | 31003 ft | 527 kts | 79° |
| 2026-05-05 00:36 | 40.05780 | -102.13101 | 31173 ft | 530 kts | 79° |
| 2026-05-05 00:36 | 40.06746 | -102.03607 | 31363 ft | 533 kts | 80° |
| 2026-05-05 00:37 | 40.07700 | -101.94022 | 31446 ft | 538 kts | 80° |
| 2026-05-05 00:37 | 40.08664 | -101.84346 | 31627 ft | 539 kts | 79° |
| 2026-05-05 00:38 | 40.09622 | -101.74624 | 31827 ft | 541 kts | 79° |
| 2026-05-05 00:38 | 40.10576 | -101.64862 | 32049 ft | 542 kts | 79° |
| 2026-05-05 00:38 | 40.11052 | -101.59973 | 32154 ft | 543 kts | 79° |
| 2026-05-05 00:39 | 40.11521 | -101.55109 | 32242 ft | 543 kts | 79° |
| 2026-05-05 00:39 | 40.12467 | -101.45293 | 32432 ft | 545 kts | 79° |
| 2026-05-05 00:40 | 40.13356 | -101.35426 | 32601 ft | 548 kts | 81° |
| 2026-05-05 00:40 | 40.13633 | -101.30452 | 32755 ft | 550 kts | 84° |
| 2026-05-05 00:40 | 40.13759 | -101.25445 | 32850 ft | 551 kts | 86° |
| 2026-05-05 00:40 | 40.13853 | -101.20461 | 33223 ft | 545 kts | 86° |
| 2026-05-05 00:41 | 40.13967 | -101.15558 | 33795 ft | 535 kts | 84° |
| 2026-05-05 00:41 | 40.14147 | -101.10739 | 34199 ft | 528 kts | 83° |
| 2026-05-05 00:41 | 40.14336 | -101.05946 | 34359 ft | 528 kts | 83° |
| 2026-05-05 00:41 | 40.14521 | -101.01148 | 34490 ft | 529 kts | 83° |
| 2026-05-05 00:42 | 40.14686 | -100.96341 | 34600 ft | 529 kts | 84° |
| 2026-05-05 00:42 | 40.14831 | -100.91612 | 34724 ft | 530 kts | 84° |
| 2026-05-05 00:42 | 40.14972 | -100.86791 | 34842 ft | 531 kts | 84° |
| 2026-05-05 00:42 | 40.15116 | -100.81895 | 34949 ft | 531 kts | 84° |
| 2026-05-05 00:43 | 40.15261 | -100.77136 | 35058 ft | 532 kts | 84° |
| 2026-05-05 00:43 | 40.15409 | -100.72308 | 35164 ft | 532 kts | 84° |
| 2026-05-05 00:43 | 40.15556 | -100.67462 | 35244 ft | 534 kts | 84° |
| 2026-05-05 00:43 | 40.15697 | -100.62622 | 35371 ft | 534 kts | 84° |
| 2026-05-05 00:44 | 40.15836 | -100.57766 | 35497 ft | 534 kts | 84° |
| 2026-05-05 00:44 | 40.15973 | -100.52918 | 35680 ft | 533 kts | 84° |
| 2026-05-05 00:44 | 40.16107 | -100.48074 | 35785 ft | 534 kts | 84° |
| 2026-05-05 00:44 | 40.16240 | -100.43233 | 35898 ft | 534 kts | 84° |
| 2026-05-05 00:45 | 40.16363 | -100.38669 | 36010 ft | 534 kts | 85° |
| 2026-05-05 00:45 | 40.16620 | -100.28964 | 36211 ft | 535 kts | 85° |
| 2026-05-05 00:46 | 40.16870 | -100.19229 | 36440 ft | 535 kts | 85° |
| 2026-05-05 00:46 | 40.16991 | -100.14383 | 36629 ft | 533 kts | 85° |
| 2026-05-05 00:46 | 40.17107 | -100.09540 | 36746 ft | 533 kts | 85° |
| 2026-05-05 00:47 | 40.17312 | -99.99940 | 36931 ft | 533 kts | 85° |
| 2026-05-05 00:47 | 40.17539 | -99.90305 | 37119 ft | 534 kts | 85° |
| 2026-05-05 00:48 | 40.17759 | -99.80613 | 37339 ft | 534 kts | 85° |
| 2026-05-05 00:48 | 40.17959 | -99.70986 | 37531 ft | 534 kts | 85° |
| 2026-05-05 00:49 | 40.18166 | -99.61284 | 37674 ft | 534 kts | 85° |
| 2026-05-05 00:49 | 40.18355 | -99.51552 | 37806 ft | 535 kts | 85° |
| 2026-05-05 00:50 | 40.18537 | -99.41824 | 38001 ft | 535 kts | 85° |
| 2026-05-05 00:50 | 40.18722 | -99.32128 | 38125 ft | 535 kts | 85° |
| 2026-05-05 00:51 | 40.18886 | -99.22401 | 38274 ft | 535 kts | 85° |
| 2026-05-05 00:51 | 40.19045 | -99.12655 | 38377 ft | 536 kts | 85° |
| 2026-05-05 00:51 | 40.19124 | -99.07773 | 38497 ft | 536 kts | 85° |
| 2026-05-05 00:52 | 40.19197 | -99.02905 | 38535 ft | 537 kts | 85° |
| 2026-05-05 00:52 | 40.19348 | -98.93133 | 38673 ft | 536 kts | 85° |
| 2026-05-05 00:53 | 40.19479 | -98.83405 | 38827 ft | 535 kts | 85° |
| 2026-05-05 00:53 | 40.19607 | -98.73677 | 38869 ft | 536 kts | 85° |
| 2026-05-05 00:54 | 40.19726 | -98.63908 | 38890 ft | 539 kts | 85° |
| 2026-05-05 00:54 | 40.19842 | -98.54081 | 38886 ft | 540 kts | 85° |
| 2026-05-05 00:55 | 40.19942 | -98.44261 | 38884 ft | 539 kts | 85° |
| 2026-05-05 00:55 | 40.20040 | -98.34521 | 38883 ft | 539 kts | 85° |
| 2026-05-05 00:56 | 40.20122 | -98.25088 | 38885 ft | 538 kts | 85° |
| 2026-05-05 00:56 | 40.20205 | -98.15265 | 38884 ft | 538 kts | 86° |
| 2026-05-05 00:57 | 40.20267 | -98.06231 | 38890 ft | 537 kts | 86° |
| 2026-05-05 00:57 | 40.20332 | -97.96525 | 38880 ft | 537 kts | 85° |
| 2026-05-05 00:58 | 40.20386 | -97.87443 | 38802 ft | 536 kts | 86° |
| 2026-05-05 00:58 | 40.20428 | -97.77778 | 38773 ft | 535 kts | 86° |
| 2026-05-05 00:59 | 40.20466 | -97.68649 | 38739 ft | 534 kts | 86° |
| 2026-05-05 00:59 | 40.20498 | -97.58941 | 38751 ft | 534 kts | 86° |
| 2026-05-05 01:00 | 40.20518 | -97.49860 | 38733 ft | 534 kts | 85° |
| 2026-05-05 01:00 | 40.20546 | -97.40149 | 38732 ft | 533 kts | 85° |
| 2026-05-05 01:01 | 40.20559 | -97.30935 | 38731 ft | 533 kts | 86° |
| 2026-05-05 01:01 | 40.20552 | -97.21243 | 38734 ft | 532 kts | 86° |
| 2026-05-05 01:02 | 40.20545 | -97.11912 | 38735 ft | 532 kts | 86° |
| 2026-05-05 01:02 | 40.20530 | -97.02255 | 38739 ft | 531 kts | 86° |
| 2026-05-05 01:03 | 40.20508 | -96.93701 | 38741 ft | 531 kts | 86° |
| 2026-05-05 01:03 | 40.20483 | -96.85920 | 38738 ft | 530 kts | 86° |
| 2026-05-05 01:04 | 40.20447 | -96.76603 | 38742 ft | 530 kts | 86° |
| 2026-05-05 01:04 | 40.20383 | -96.62511 | 38739 ft | 530 kts | 86° |
| 2026-05-05 01:05 | 40.20328 | -96.53775 | 38732 ft | 530 kts | 86° |
| 2026-05-05 01:05 | 40.20264 | -96.44138 | 38737 ft | 530 kts | 86° |
| 2026-05-05 01:06 | 40.20196 | -96.34606 | 38723 ft | 529 kts | 86° |
| 2026-05-05 01:06 | 40.20118 | -96.24972 | 38719 ft | 529 kts | 86° |
| 2026-05-05 01:07 | 40.20051 | -96.16015 | 38712 ft | 529 kts | 86° |
| 2026-05-05 01:07 | 40.20020 | -96.06393 | 38713 ft | 528 kts | 85° |
| 2026-05-05 01:08 | 40.19992 | -95.97511 | 38704 ft | 529 kts | 85° |
| 2026-05-05 01:08 | 40.19952 | -95.87898 | 38694 ft | 528 kts | 86° |
| 2026-05-05 01:09 | 40.19899 | -95.78962 | 38696 ft | 528 kts | 86° |
| 2026-05-05 01:09 | 40.19836 | -95.69371 | 38684 ft | 528 kts | 86° |
| 2026-05-05 01:10 | 40.19767 | -95.60272 | 38692 ft | 528 kts | 86° |
| 2026-05-05 01:10 | 40.19690 | -95.50674 | 38691 ft | 528 kts | 86° |
| 2026-05-05 01:11 | 40.19608 | -95.41413 | 38685 ft | 527 kts | 86° |
| 2026-05-05 01:11 | 40.19514 | -95.31816 | 38701 ft | 527 kts | 86° |
| 2026-05-05 01:12 | 40.19410 | -95.22226 | 38692 ft | 528 kts | 86° |
| 2026-05-05 01:12 | 40.19298 | -95.12626 | 38700 ft | 528 kts | 86° |
| 2026-05-05 01:13 | 40.19186 | -95.03221 | 38696 ft | 528 kts | 86° |
| 2026-05-05 01:13 | 40.19061 | -94.93616 | 38700 ft | 528 kts | 87° |
| 2026-05-05 01:14 | 40.18935 | -94.84691 | 38703 ft | 528 kts | 87° |
| 2026-05-05 01:14 | 40.18793 | -94.75120 | 38694 ft | 528 kts | 87° |
| 2026-05-05 01:15 | 40.18643 | -94.66051 | 38663 ft | 528 kts | 87° |
| 2026-05-05 01:15 | 40.18494 | -94.56457 | 38669 ft | 527 kts | 87° |
| 2026-05-05 01:16 | 40.18324 | -94.46874 | 38666 ft | 527 kts | 88° |
| 2026-05-05 01:16 | 40.18149 | -94.37297 | 38656 ft | 527 kts | 88° |
| 2026-05-05 01:17 | 40.17983 | -94.28067 | 38672 ft | 527 kts | 88° |
| 2026-05-05 01:17 | 40.17791 | -94.18498 | 38627 ft | 526 kts | 88° |
| 2026-05-05 01:18 | 40.17615 | -94.09704 | 38643 ft | 525 kts | 88° |
| 2026-05-05 01:18 | 40.17415 | -94.00173 | 38653 ft | 524 kts | 88° |
| 2026-05-05 01:19 | 40.17222 | -93.91321 | 38656 ft | 524 kts | 88° |
| 2026-05-05 01:19 | 40.17005 | -93.81803 | 38657 ft | 524 kts | 88° |
| 2026-05-05 01:20 | 40.16806 | -93.73259 | 38663 ft | 523 kts | 88° |
| 2026-05-05 01:20 | 40.16575 | -93.63758 | 38664 ft | 523 kts | 88° |
| 2026-05-05 01:21 | 40.16347 | -93.54614 | 38658 ft | 522 kts | 88° |
| 2026-05-05 01:21 | 40.16102 | -93.45134 | 38656 ft | 522 kts | 88° |
| 2026-05-05 01:22 | 40.15851 | -93.35716 | 38659 ft | 521 kts | 88° |
| 2026-05-05 01:22 | 40.15593 | -93.26241 | 38664 ft | 521 kts | 88° |
| 2026-05-05 01:23 | 40.15351 | -93.17713 | 38660 ft | 521 kts | 88° |
| 2026-05-05 01:23 | 40.15077 | -93.08249 | 38666 ft | 520 kts | 89° |
| 2026-05-05 01:24 | 40.14808 | -92.99139 | 38678 ft | 520 kts | 89° |
| 2026-05-05 01:24 | 40.14508 | -92.89699 | 38669 ft | 520 kts | 89° |
| 2026-05-05 01:25 | 40.14220 | -92.80333 | 38664 ft | 519 kts | 89° |
| 2026-05-05 01:25 | 40.13918 | -92.70973 | 38664 ft | 519 kts | 89° |
| 2026-05-05 01:26 | 40.13740 | -92.62264 | 38661 ft | 514 kts | 81° |
| 2026-05-05 01:26 | 40.14309 | -92.57707 | 38665 ft | 503 kts | 68° |
| 2026-05-05 01:26 | 40.15459 | -92.53430 | 38674 ft | 494 kts | 59° |
| 2026-05-05 01:27 | 40.18528 | -92.45536 | 38672 ft | 487 kts | 53° |
| 2026-05-05 01:27 | 40.21461 | -92.37492 | 38662 ft | 491 kts | 58° |
| 2026-05-05 01:28 | 40.23873 | -92.30544 | 38687 ft | 490 kts | 57° |
| 2026-05-05 01:28 | 40.26775 | -92.22480 | 38660 ft | 490 kts | 57° |
| 2026-05-05 01:29 | 40.29667 | -92.14408 | 38648 ft | 489 kts | 57° |
| 2026-05-05 01:29 | 40.32547 | -92.06348 | 38639 ft | 488 kts | 57° |
| 2026-05-05 01:30 | 40.35421 | -91.98292 | 38632 ft | 487 kts | 58° |
| 2026-05-05 01:30 | 40.38282 | -91.90244 | 38639 ft | 487 kts | 58° |
| 2026-05-05 01:31 | 40.41128 | -91.82210 | 38629 ft | 486 kts | 58° |
| 2026-05-05 01:31 | 40.43978 | -91.74173 | 38628 ft | 486 kts | 58° |
| 2026-05-05 01:32 | 40.46720 | -91.66066 | 38650 ft | 485 kts | 59° |
| 2026-05-05 01:32 | 40.49463 | -91.57969 | 38637 ft | 485 kts | 60° |
| 2026-05-05 01:33 | 40.52160 | -91.49920 | 38645 ft | 484 kts | 60° |
| 2026-05-05 01:33 | 40.54886 | -91.41830 | 38635 ft | 483 kts | 60° |
| 2026-05-05 01:34 | 40.57613 | -91.33760 | 38634 ft | 482 kts | 60° |
| 2026-05-05 01:34 | 40.60356 | -91.25724 | 38634 ft | 481 kts | 60° |
| 2026-05-05 01:35 | 40.63094 | -91.17696 | 38636 ft | 481 kts | 60° |
| 2026-05-05 01:35 | 40.65829 | -91.09661 | 38635 ft | 480 kts | 60° |
| 2026-05-05 01:36 | 40.68544 | -91.01630 | 38621 ft | 479 kts | 60° |
| 2026-05-05 01:36 | 40.71253 | -90.93614 | 38618 ft | 479 kts | 60° |
| 2026-05-05 01:37 | 40.73954 | -90.85598 | 38622 ft | 478 kts | 60° |
| 2026-05-05 01:37 | 40.76647 | -90.77591 | 38622 ft | 477 kts | 60° |
| 2026-05-05 01:38 | 40.79326 | -90.69604 | 38632 ft | 476 kts | 61° |
| 2026-05-05 01:38 | 40.81994 | -90.61614 | 38653 ft | 475 kts | 61° |
| 2026-05-05 01:39 | 40.84666 | -90.53626 | 38670 ft | 475 kts | 61° |
| 2026-05-05 01:39 | 40.87324 | -90.45656 | 38681 ft | 474 kts | 61° |
| 2026-05-05 01:40 | 40.89981 | -90.37690 | 38670 ft | 473 kts | 62° |
| 2026-05-05 01:40 | 40.92654 | -90.29750 | 38696 ft | 473 kts | 62° |
| 2026-05-05 01:41 | 40.95307 | -90.21821 | 38683 ft | 472 kts | 62° |
| 2026-05-05 01:41 | 40.97938 | -90.13861 | 38681 ft | 472 kts | 62° |
| 2026-05-05 01:42 | 41.00448 | -90.06233 | 38685 ft | 471 kts | 62° |
| 2026-05-05 01:42 | 41.03045 | -89.98333 | 38571 ft | 470 kts | 63° |
| 2026-05-05 01:43 | 41.04350 | -89.94375 | 37984 ft | 472 kts | 64° |
| 2026-05-05 01:43 | 41.05637 | -89.90369 | 37071 ft | 474 kts | 64° |
| 2026-05-05 01:43 | 41.06942 | -89.86360 | 36202 ft | 474 kts | 64° |
| 2026-05-05 01:43 | 41.08267 | -89.82359 | 35363 ft | 473 kts | 63° |
| 2026-05-05 01:44 | 41.09594 | -89.78370 | 34554 ft | 472 kts | 64° |
| 2026-05-05 01:44 | 41.10911 | -89.74390 | 33770 ft | 471 kts | 64° |
| 2026-05-05 01:44 | 41.12211 | -89.70424 | 32904 ft | 469 kts | 64° |
| 2026-05-05 01:44 | 41.13503 | -89.66459 | 32078 ft | 467 kts | 64° |
| 2026-05-05 01:45 | 41.14792 | -89.62511 | 31241 ft | 467 kts | 64° |
| 2026-05-05 01:45 | 41.16109 | -89.58558 | 30421 ft | 468 kts | 62° |
| 2026-05-05 01:45 | 41.17561 | -89.54688 | 29622 ft | 469 kts | 59° |
| 2026-05-05 01:45 | 41.19144 | -89.50903 | 28713 ft | 469 kts | 57° |
| 2026-05-05 01:46 | 41.20751 | -89.47130 | 27829 ft | 469 kts | 57° |
| 2026-05-05 01:46 | 41.22338 | -89.43340 | 26966 ft | 470 kts | 59° |
| 2026-05-05 01:46 | 41.23887 | -89.39529 | 26144 ft | 469 kts | 59° |
| 2026-05-05 01:46 | 41.25424 | -89.35728 | 25345 ft | 469 kts | 59° |
| 2026-05-05 01:47 | 41.26951 | -89.31943 | 24569 ft | 464 kts | 59° |
| 2026-05-05 01:47 | 41.28405 | -89.28344 | 23847 ft | 459 kts | 59° |
| 2026-05-05 01:47 | 41.29883 | -89.24653 | 23106 ft | 454 kts | 59° |
| 2026-05-05 01:47 | 41.31343 | -89.21007 | 22251 ft | 450 kts | 60° |
| 2026-05-05 01:48 | 41.32800 | -89.17349 | 21432 ft | 446 kts | 59° |
| 2026-05-05 01:48 | 41.34250 | -89.13729 | 20640 ft | 442 kts | 59° |
| 2026-05-05 01:48 | 41.35688 | -89.10130 | 19909 ft | 438 kts | 59° |
| 2026-05-05 01:48 | 41.37118 | -89.06561 | 19171 ft | 434 kts | 59° |
| 2026-05-05 01:49 | 41.38526 | -89.03040 | 18538 ft | 428 kts | 59° |
| 2026-05-05 01:49 | 41.39884 | -88.99611 | 18246 ft | 414 kts | 59° |
| 2026-05-05 01:49 | 41.41222 | -88.96210 | 17454 ft | 415 kts | 59° |
| 2026-05-05 01:49 | 41.42563 | -88.92802 | 16644 ft | 414 kts | 59° |
| 2026-05-05 01:50 | 41.43895 | -88.89415 | 15911 ft | 412 kts | 59° |
| 2026-05-05 01:50 | 41.44775 | -88.87181 | 15439 ft | 409 kts | 59° |
| 2026-05-05 01:50 | 41.46093 | -88.83837 | 14740 ft | 406 kts | 59° |
| 2026-05-05 01:50 | 41.47396 | -88.80518 | 14064 ft | 403 kts | 59° |
| 2026-05-05 01:51 | 41.48691 | -88.77214 | 13394 ft | 398 kts | 58° |
| 2026-05-05 01:51 | 41.49962 | -88.73980 | 12664 ft | 391 kts | 59° |
| 2026-05-05 01:51 | 41.51208 | -88.70795 | 12087 ft | 380 kts | 58° |
| 2026-05-05 01:51 | 41.52410 | -88.67746 | 12079 ft | 372 kts | 58° |
| 2026-05-05 01:52 | 41.53631 | -88.64668 | 12082 ft | 379 kts | 58° |
| 2026-05-05 01:52 | 41.54866 | -88.61533 | 12086 ft | 384 kts | 58° |
| 2026-05-05 01:52 | 41.56113 | -88.58354 | 12109 ft | 388 kts | 58° |
| 2026-05-05 01:52 | 41.57573 | -88.55348 | 12108 ft | 386 kts | 45° |
| 2026-05-05 01:53 | 41.59390 | -88.52738 | 12123 ft | 381 kts | 40° |
| 2026-05-05 01:53 | 41.61255 | -88.50254 | 12129 ft | 376 kts | 39° |
| 2026-05-05 01:53 | 41.63088 | -88.47788 | 12130 ft | 372 kts | 40° |
| 2026-05-05 01:53 | 41.64864 | -88.45270 | 12127 ft | 373 kts | 42° |
| 2026-05-05 01:54 | 41.66612 | -88.42705 | 12120 ft | 373 kts | 43° |
| 2026-05-05 01:54 | 41.68362 | -88.40145 | 12123 ft | 373 kts | 43° |
| 2026-05-05 01:54 | 41.70117 | -88.37589 | 12121 ft | 373 kts | 43° |
| 2026-05-05 01:54 | 41.71880 | -88.35045 | 12119 ft | 372 kts | 41° |
| 2026-05-05 01:55 | 41.73734 | -88.32656 | 12127 ft | 369 kts | 37° |
| 2026-05-05 01:55 | 41.75663 | -88.30392 | 12128 ft | 368 kts | 35° |
| 2026-05-05 01:55 | 41.77605 | -88.28156 | 12136 ft | 368 kts | 35° |
| 2026-05-05 01:55 | 41.79546 | -88.25914 | 12134 ft | 369 kts | 35° |
| 2026-05-05 01:56 | 41.81469 | -88.23640 | 11800 ft | 367 kts | 36° |
| 2026-05-05 01:56 | 41.83370 | -88.21373 | 11153 ft | 364 kts | 37° |
| 2026-05-05 01:56 | 41.85246 | -88.19118 | 10721 ft | 355 kts | 36° |
| 2026-05-05 01:56 | 41.87005 | -88.16994 | 10654 ft | 337 kts | 37° |
| 2026-05-05 01:57 | 41.88385 | -88.14508 | 10514 ft | 334 kts | 63° |
| 2026-05-05 01:57 | 41.88829 | -88.11496 | 10389 ft | 327 kts | 87° |
| 2026-05-05 01:57 | 41.88785 | -88.08482 | 10238 ft | 320 kts | 92° |
| 2026-05-05 01:57 | 41.88657 | -88.05518 | 9958 ft | 317 kts | 92° |
| 2026-05-05 01:58 | 41.88529 | -88.02581 | 9656 ft | 315 kts | 92° |
| 2026-05-05 01:58 | 41.88436 | -87.99639 | 9330 ft | 314 kts | 91° |
| 2026-05-05 01:58 | 41.88405 | -87.96722 | 8987 ft | 312 kts | 89° |
| 2026-05-05 01:58 | 41.88412 | -87.93817 | 8662 ft | 310 kts | 89° |
| 2026-05-05 01:59 | 41.88417 | -87.90934 | 8309 ft | 308 kts | 89° |
| 2026-05-05 01:59 | 41.88414 | -87.88064 | 7960 ft | 307 kts | 89° |
| 2026-05-05 01:59 | 41.88409 | -87.85211 | 7587 ft | 306 kts | 90° |
| 2026-05-05 01:59 | 41.88404 | -87.82365 | 7245 ft | 303 kts | 89° |
| 2026-05-05 02:00 | 41.88409 | -87.79540 | 6877 ft | 302 kts | 89° |
| 2026-05-05 02:00 | 41.88413 | -87.76733 | 6515 ft | 300 kts | 89° |
| 2026-05-05 02:00 | 41.88423 | -87.73935 | 6172 ft | 299 kts | 90° |
| 2026-05-05 02:00 | 41.88431 | -87.71170 | 5758 ft | 298 kts | 90° |
| 2026-05-05 02:01 | 41.88425 | -87.68395 | 5382 ft | 296 kts | 90° |
| 2026-05-05 02:01 | 41.88416 | -87.66018 | 5208 ft | 301 kts | 90° |
| 2026-05-05 02:01 | 41.88408 | -87.63221 | 5145 ft | 296 kts | 90° |
| 2026-05-05 02:01 | 41.88401 | -87.60482 | 4874 ft | 292 kts | 90° |
| 2026-05-05 02:02 | 41.88442 | -87.57867 | 4806 ft | 277 kts | 81° |
| 2026-05-05 02:02 | 41.89167 | -87.55582 | 4667 ft | 259 kts | 45° |
| 2026-05-05 02:02 | 41.90568 | -87.54309 | 4378 ft | 237 kts | 7° |
| 2026-05-05 02:02 | 41.92142 | -87.53962 | 4203 ft | 224 kts | 359° |
| 2026-05-05 02:03 | 41.93597 | -87.53738 | 4146 ft | 214 kts | 357° |
| 2026-05-05 02:03 | 41.95025 | -87.53564 | 4101 ft | 215 kts | 355° |
| 2026-05-05 02:03 | 41.96387 | -87.54020 | 4063 ft | 194 kts | 314° |
| 2026-05-05 02:03 | 41.97213 | -87.55363 | 4066 ft | 186 kts | 298° |
| 2026-05-05 02:04 | 41.97950 | -87.56792 | 4059 ft | 185 kts | 294° |
| 2026-05-05 02:04 | 41.98234 | -87.58400 | 4054 ft | 177 kts | 268° |
| 2026-05-05 02:04 | 41.98279 | -87.60036 | 4049 ft | 178 kts | 269° |
| 2026-05-05 02:04 | 41.98316 | -87.61719 | 4036 ft | 178 kts | 268° |
| 2026-05-05 02:05 | 41.98402 | -87.63390 | 4033 ft | 181 kts | 274° |
| 2026-05-05 02:05 | 41.98597 | -87.65060 | 3971 ft | 177 kts | 276° |
| 2026-05-05 02:05 | 41.98799 | -87.66631 | 3806 ft | 168 kts | 274° |
| 2026-05-05 02:05 | 41.98785 | -87.68186 | 3602 ft | 162 kts | 269° |
| 2026-05-05 02:06 | 41.98873 | -87.69694 | 3445 ft | 169 kts | 269° |
| 2026-05-05 02:06 | 41.98876 | -87.71295 | 3329 ft | 174 kts | 266° |
| 2026-05-05 02:06 | 41.98850 | -87.72857 | 3210 ft | 153 kts | 265° |
| 2026-05-05 02:06 | 41.98840 | -87.74195 | 2984 ft | 134 kts | 265° |
| 2026-05-05 02:07 | 41.98843 | -87.75362 | 2785 ft | 121 kts | 265° |
| 2026-05-05 02:07 | 41.98868 | -87.76488 | 2600 ft | 119 kts | 265° |
| 2026-05-05 02:07 | 41.98901 | -87.77629 | 2372 ft | 124 kts | 264° |
| 2026-05-05 02:07 | 41.98922 | -87.78786 | 2197 ft | 124 kts | 263° |
| 2026-05-05 02:08 | 41.98908 | -87.79963 | 2053 ft | 126 kts | 261° |
| 2026-05-05 02:08 | 41.98900 | -87.81109 | 1866 ft | 121 kts | 263° |
| 2026-05-05 02:08 | 41.98907 | -87.82265 | 1648 ft | 125 kts | 261° |
| 2026-05-05 02:08 | 41.98891 | -87.83468 | 1489 ft | 133 kts | 262° |
| 2026-05-05 02:09 | 41.98855 | -87.84667 | 1308 ft | 130 kts | 262° |
| 2026-05-05 02:09 | 41.98850 | -87.85920 | 1146 ft | 138 kts | 264° |
| 2026-05-05 02:09 | 41.98841 | -87.87194 | 1004 ft | 134 kts | 262° |
| 2026-05-05 02:09 | 41.98826 | -87.88450 | 841 ft | 132 kts | 267° |
| 2026-05-05 02:10 | 41.98836 | -87.89641 | 668 ft | 117 kts | 266° |
| 2026-05-05 02:10 | 41.98826 | -87.90509 | 670 ft | 54 kts | 270° |
| 2026-05-05 02:10 | 41.98827 | -87.90830 | 668 ft | 31 kts | 270° |
| 2026-05-05 02:10 | 41.98828 | -87.91118 | 668 ft | 30 kts | 270° |
| 2026-05-05 02:11 | 41.98814 | -87.91397 | 665 ft | 29 kts | 260° |
| 2026-05-05 02:11 | 41.98757 | -87.91562 | 667 ft | 14 kts | 236° |
| 2026-05-05 02:11 | 41.98704 | -87.91675 | 667 ft | 15 kts | 244° |
| 2026-05-05 02:11 | 41.98671 | -87.91791 | 667 ft | 11 kts | 240° |
| 2026-05-05 02:12 | 41.98599 | -87.91821 | 667 ft | 13 kts | 180° |
| 2026-05-05 02:12 | 41.98382 | -87.91822 | 668 ft | 18 kts | 180° |
| 2026-05-05 02:12 | 41.98294 | -87.91802 | 668 ft | 10 kts | 129° |
| 2026-05-05 02:13 | 41.98288 | -87.91690 | 668 ft | 16 kts | 90° |
| 2026-05-05 02:13 | 41.98288 | -87.91513 | 668 ft | 21 kts | 90° |
| 2026-05-05 02:13 | 41.98287 | -87.91313 | 670 ft | 20 kts | 90° |
| 2026-05-05 02:13 | 41.98288 | -87.91113 | 667 ft | 23 kts | 90° |
| 2026-05-05 02:14 | 41.98288 | -87.90925 | 667 ft | 11 kts | 90° |
| 2026-05-05 02:14 | 41.98278 | -87.90827 | 667 ft | 12 kts | 122° |
| 2026-05-05 02:14 | 41.98210 | -87.90790 | 667 ft | 12 kts | 174° |
| 2026-05-05 02:14 | 41.98115 | -87.90778 | 667 ft | 15 kts | 175° |
| 2026-05-05 02:15 | 41.98010 | -87.90790 | 667 ft | 16 kts | 189° |
| 2026-05-05 02:15 | 41.97898 | -87.90815 | 667 ft | 16 kts | 189° |
| 2026-05-05 02:15 | 41.97788 | -87.90840 | 667 ft | 14 kts | 189° |
| 2026-05-05 02:15 | 41.97707 | -87.90859 | 667 ft | 6 kts | 189° |
| 2026-05-05 02:16 | 41.97674 | -87.90851 | 667 ft | 4 kts | 120° |
| 2026-05-05 02:16 | 41.97681 | -87.90801 | 667 ft | 5 kts | 69° |
| 2026-05-05 02:16 | 41.97686 | -87.90783 | 667 ft | 0 kts | 71° |
| 2026-05-05 02:16 | 41.97686 | -87.90781 | 667 ft | 0 kts | 71° |